sensor_id;sensor_type;location;lat;lon;timestamp;P1;durP1;ratioP1;P2;durP2;ratioP2
31262;SDS011;17892;52.080;9.006;2024-01-30T00:01:51;13.88;;;8.95;;
31262;SDS011;17892;52.080;9.006;2024-01-30T00:04:17;12.30;;;8.02;;
31262;SDS011;17892;52.080;9.006;2024-01-30T00:06:43;13.77;;;6.85;;
31262;SDS011;17892;52.080;9.006;2024-01-30T00:09:09;11.73;;;7.50;;
31262;SDS011;17892;52.080;9.006;2024-01-30T00:11:36;13.60;;;8.15;;
31262;SDS011;17892;52.080;9.006;2024-01-30T00:14:04;13.18;;;8.45;;
31262;SDS011;17892;52.080;9.006;2024-01-30T00:16:30;11.38;;;7.38;;
31262;SDS011;17892;52.080;9.006;2024-01-30T00:18:56;12.80;;;7.03;;
31262;SDS011;17892;52.080;9.006;2024-01-30T00:21:22;12.80;;;7.95;;
31262;SDS011;17892;52.080;9.006;2024-01-30T00:23:48;11.88;;;7.85;;
31262;SDS011;17892;52.080;9.006;2024-01-30T00:26:14;13.60;;;8.07;;
31262;SDS011;17892;52.080;9.006;2024-01-30T00:28:43;11.80;;;6.60;;
31262;SDS011;17892;52.080;9.006;2024-01-30T00:31:09;15.02;;;8.70;;
31262;SDS011;17892;52.080;9.006;2024-01-30T00:33:37;14.93;;;8.73;;
31262;SDS011;17892;52.080;9.006;2024-01-30T00:36:04;14.05;;;7.97;;
31262;SDS011;17892;52.080;9.006;2024-01-30T00:38:31;10.55;;;6.20;;
31262;SDS011;17892;52.080;9.006;2024-01-30T00:40:57;10.88;;;6.13;;
31262;SDS011;17892;52.080;9.006;2024-01-30T00:43:23;9.40;;;5.75;;
31262;SDS011;17892;52.080;9.006;2024-01-30T00:45:50;11.43;;;7.13;;
31262;SDS011;17892;52.080;9.006;2024-01-30T00:48:17;10.07;;;6.03;;
31262;SDS011;17892;52.080;9.006;2024-01-30T00:50:43;11.65;;;6.50;;
31262;SDS011;17892;52.080;9.006;2024-01-30T00:53:09;15.52;;;7.70;;
31262;SDS011;17892;52.080;9.006;2024-01-30T00:55:35;14.07;;;8.75;;
31262;SDS011;17892;52.080;9.006;2024-01-30T00:58:01;14.93;;;9.07;;
31262;SDS011;17892;52.080;9.006;2024-01-30T01:00:26;12.95;;;8.45;;
31262;SDS011;17892;52.080;9.006;2024-01-30T01:02:54;14.05;;;8.23;;
31262;SDS011;17892;52.080;9.006;2024-01-30T01:05:20;14.15;;;9.15;;
31262;SDS011;17892;52.080;9.006;2024-01-30T01:07:46;14.13;;;8.40;;
31262;SDS011;17892;52.080;9.006;2024-01-30T01:10:15;16.38;;;9.07;;
31262;SDS011;17892;52.080;9.006;2024-01-30T01:12:42;13.57;;;8.68;;
31262;SDS011;17892;52.080;9.006;2024-01-30T01:15:08;13.35;;;9.32;;
31262;SDS011;17892;52.080;9.006;2024-01-30T01:17:37;14.52;;;8.45;;
31262;SDS011;17892;52.080;9.006;2024-01-30T01:20:04;14.35;;;8.82;;
31262;SDS011;17892;52.080;9.006;2024-01-30T01:22:31;15.38;;;9.10;;
31262;SDS011;17892;52.080;9.006;2024-01-30T01:24:58;13.27;;;7.70;;
31262;SDS011;17892;52.080;9.006;2024-01-30T01:27:24;12.93;;;8.20;;
31262;SDS011;17892;52.080;9.006;2024-01-30T01:29:51;13.18;;;8.07;;
31262;SDS011;17892;52.080;9.006;2024-01-30T01:32:17;12.90;;;8.35;;
31262;SDS011;17892;52.080;9.006;2024-01-30T01:34:43;13.27;;;7.82;;
31262;SDS011;17892;52.080;9.006;2024-01-30T01:37:09;11.45;;;6.82;;
31262;SDS011;17892;52.080;9.006;2024-01-30T01:39:34;11.93;;;7.75;;
31262;SDS011;17892;52.080;9.006;2024-01-30T01:42:00;13.50;;;7.45;;
31262;SDS011;17892;52.080;9.006;2024-01-30T01:44:26;13.80;;;8.23;;
31262;SDS011;17892;52.080;9.006;2024-01-30T01:46:52;14.32;;;8.27;;
31262;SDS011;17892;52.080;9.006;2024-01-30T01:49:20;13.30;;;8.38;;
31262;SDS011;17892;52.080;9.006;2024-01-30T01:51:48;11.90;;;7.18;;
31262;SDS011;17892;52.080;9.006;2024-01-30T01:54:15;12.63;;;7.95;;
31262;SDS011;17892;52.080;9.006;2024-01-30T01:56:42;15.30;;;9.00;;
31262;SDS011;17892;52.080;9.006;2024-01-30T01:59:08;12.30;;;8.07;;
31262;SDS011;17892;52.080;9.006;2024-01-30T02:01:37;16.40;;;9.07;;
31262;SDS011;17892;52.080;9.006;2024-01-30T02:04:06;13.80;;;9.05;;
31262;SDS011;17892;52.080;9.006;2024-01-30T02:06:33;14.40;;;9.35;;
31262;SDS011;17892;52.080;9.006;2024-01-30T02:09:00;16.55;;;9.27;;
31262;SDS011;17892;52.080;9.006;2024-01-30T02:11:25;13.63;;;7.97;;
31262;SDS011;17892;52.080;9.006;2024-01-30T02:13:52;12.32;;;7.50;;
31262;SDS011;17892;52.080;9.006;2024-01-30T02:16:17;14.52;;;9.07;;
31262;SDS011;17892;52.080;9.006;2024-01-30T02:18:43;14.88;;;8.52;;
31262;SDS011;17892;52.080;9.006;2024-01-30T02:23:43;15.75;;;8.25;;
31262;SDS011;17892;52.080;9.006;2024-01-30T02:28:37;13.65;;;8.05;;
31262;SDS011;17892;52.080;9.006;2024-01-30T02:31:03;13.13;;;7.90;;
31262;SDS011;17892;52.080;9.006;2024-01-30T02:33:30;12.63;;;8.00;;
31262;SDS011;17892;52.080;9.006;2024-01-30T02:35:55;16.00;;;8.43;;
31262;SDS011;17892;52.080;9.006;2024-01-30T02:38:21;15.63;;;8.77;;
31262;SDS011;17892;52.080;9.006;2024-01-30T02:40:48;12.93;;;7.85;;
31262;SDS011;17892;52.080;9.006;2024-01-30T02:43:14;12.07;;;7.85;;
31262;SDS011;17892;52.080;9.006;2024-01-30T02:45:41;13.13;;;8.18;;
31262;SDS011;17892;52.080;9.006;2024-01-30T02:48:06;15.68;;;8.15;;
31262;SDS011;17892;52.080;9.006;2024-01-30T02:50:32;12.20;;;7.68;;
31262;SDS011;17892;52.080;9.006;2024-01-30T02:52:58;12.27;;;7.85;;
31262;SDS011;17892;52.080;9.006;2024-01-30T02:55:24;13.10;;;8.45;;
31262;SDS011;17892;52.080;9.006;2024-01-30T02:57:49;15.48;;;9.60;;
31262;SDS011;17892;52.080;9.006;2024-01-30T03:00:15;14.15;;;8.40;;
31262;SDS011;17892;52.080;9.006;2024-01-30T03:02:41;13.15;;;8.70;;
31262;SDS011;17892;52.080;9.006;2024-01-30T03:05:07;14.07;;;7.70;;
31262;SDS011;17892;52.080;9.006;2024-01-30T03:07:33;13.90;;;9.00;;
31262;SDS011;17892;52.080;9.006;2024-01-30T03:09:59;13.40;;;8.98;;
31262;SDS011;17892;52.080;9.006;2024-01-30T03:12:25;14.15;;;8.73;;
31262;SDS011;17892;52.080;9.006;2024-01-30T03:14:51;11.77;;;7.85;;
31262;SDS011;17892;52.080;9.006;2024-01-30T03:17:17;15.18;;;9.32;;
31262;SDS011;17892;52.080;9.006;2024-01-30T03:19:43;13.23;;;8.70;;
31262;SDS011;17892;52.080;9.006;2024-01-30T03:22:09;13.95;;;9.30;;
31262;SDS011;17892;52.080;9.006;2024-01-30T03:24:34;14.40;;;8.57;;
31262;SDS011;17892;52.080;9.006;2024-01-30T03:27:00;16.40;;;9.23;;
31262;SDS011;17892;52.080;9.006;2024-01-30T03:29:26;13.65;;;8.65;;
31262;SDS011;17892;52.080;9.006;2024-01-30T03:31:52;14.13;;;9.15;;
31262;SDS011;17892;52.080;9.006;2024-01-30T03:34:17;16.30;;;9.25;;
31262;SDS011;17892;52.080;9.006;2024-01-30T03:36:43;15.57;;;9.48;;
31262;SDS011;17892;52.080;9.006;2024-01-30T03:39:09;14.85;;;9.48;;
31262;SDS011;17892;52.080;9.006;2024-01-30T03:41:34;15.82;;;10.13;;
31262;SDS011;17892;52.080;9.006;2024-01-30T03:44:00;14.73;;;8.88;;
31262;SDS011;17892;52.080;9.006;2024-01-30T03:46:26;15.77;;;9.07;;
31262;SDS011;17892;52.080;9.006;2024-01-30T03:48:51;15.63;;;10.20;;
31262;SDS011;17892;52.080;9.006;2024-01-30T03:51:17;15.35;;;10.07;;
31262;SDS011;17892;52.080;9.006;2024-01-30T03:53:43;16.15;;;9.40;;
31262;SDS011;17892;52.080;9.006;2024-01-30T03:56:09;14.52;;;9.00;;
31262;SDS011;17892;52.080;9.006;2024-01-30T03:58:34;14.65;;;7.85;;
31262;SDS011;17892;52.080;9.006;2024-01-30T04:01:00;15.45;;;9.02;;
31262;SDS011;17892;52.080;9.006;2024-01-30T04:03:26;15.93;;;10.02;;
31262;SDS011;17892;52.080;9.006;2024-01-30T04:05:52;14.23;;;8.75;;
31262;SDS011;17892;52.080;9.006;2024-01-30T04:08:19;14.85;;;9.35;;
31262;SDS011;17892;52.080;9.006;2024-01-30T04:10:45;15.95;;;9.80;;
31262;SDS011;17892;52.080;9.006;2024-01-30T04:13:11;13.50;;;8.77;;
31262;SDS011;17892;52.080;9.006;2024-01-30T04:15:38;16.88;;;9.50;;
31262;SDS011;17892;52.080;9.006;2024-01-30T04:18:04;14.32;;;9.57;;
31262;SDS011;17892;52.080;9.006;2024-01-30T04:20:30;18.65;;;8.77;;
31262;SDS011;17892;52.080;9.006;2024-01-30T04:22:56;14.15;;;8.75;;
31262;SDS011;17892;52.080;9.006;2024-01-30T04:25:21;13.85;;;8.40;;
31262;SDS011;17892;52.080;9.006;2024-01-30T04:27:47;16.95;;;9.73;;
31262;SDS011;17892;52.080;9.006;2024-01-30T04:30:13;15.82;;;9.85;;
31262;SDS011;17892;52.080;9.006;2024-01-30T04:32:39;16.92;;;9.98;;
31262;SDS011;17892;52.080;9.006;2024-01-30T04:35:05;16.60;;;9.75;;
31262;SDS011;17892;52.080;9.006;2024-01-30T04:37:31;15.10;;;9.73;;
31262;SDS011;17892;52.080;9.006;2024-01-30T04:39:57;16.52;;;9.98;;
31262;SDS011;17892;52.080;9.006;2024-01-30T04:42:22;14.48;;;9.80;;
31262;SDS011;17892;52.080;9.006;2024-01-30T04:44:48;16.25;;;9.73;;
31262;SDS011;17892;52.080;9.006;2024-01-30T04:47:14;16.10;;;9.70;;
31262;SDS011;17892;52.080;9.006;2024-01-30T04:49:40;15.80;;;9.73;;
31262;SDS011;17892;52.080;9.006;2024-01-30T04:52:06;14.77;;;9.55;;
31262;SDS011;17892;52.080;9.006;2024-01-30T04:54:33;15.20;;;9.77;;
31262;SDS011;17892;52.080;9.006;2024-01-30T04:57:00;16.73;;;9.80;;
31262;SDS011;17892;52.080;9.006;2024-01-30T04:59:27;13.82;;;9.05;;
31262;SDS011;17892;52.080;9.006;2024-01-30T05:01:52;14.82;;;8.63;;
31262;SDS011;17892;52.080;9.006;2024-01-30T05:04:18;14.43;;;9.68;;
31262;SDS011;17892;52.080;9.006;2024-01-30T05:06:44;14.68;;;9.30;;
31262;SDS011;17892;52.080;9.006;2024-01-30T05:09:10;16.17;;;10.07;;
31262;SDS011;17892;52.080;9.006;2024-01-30T05:11:39;15.80;;;9.85;;
31262;SDS011;17892;52.080;9.006;2024-01-30T05:14:05;18.48;;;9.55;;
31262;SDS011;17892;52.080;9.006;2024-01-30T05:16:31;15.63;;;9.60;;
31262;SDS011;17892;52.080;9.006;2024-01-30T05:18:57;15.02;;;9.55;;
31262;SDS011;17892;52.080;9.006;2024-01-30T05:21:24;14.52;;;9.35;;
31262;SDS011;17892;52.080;9.006;2024-01-30T05:23:50;15.13;;;9.18;;
31262;SDS011;17892;52.080;9.006;2024-01-30T05:26:16;16.00;;;9.02;;
31262;SDS011;17892;52.080;9.006;2024-01-30T05:28:42;14.88;;;8.88;;
31262;SDS011;17892;52.080;9.006;2024-01-30T05:31:09;16.05;;;9.40;;
31262;SDS011;17892;52.080;9.006;2024-01-30T05:33:35;15.07;;;9.68;;
31262;SDS011;17892;52.080;9.006;2024-01-30T05:36:01;15.73;;;9.90;;
31262;SDS011;17892;52.080;9.006;2024-01-30T05:38:27;17.08;;;10.05;;
31262;SDS011;17892;52.080;9.006;2024-01-30T05:40:53;16.98;;;9.65;;
31262;SDS011;17892;52.080;9.006;2024-01-30T05:43:19;16.67;;;10.38;;
31262;SDS011;17892;52.080;9.006;2024-01-30T05:45:44;17.17;;;10.10;;
31262;SDS011;17892;52.080;9.006;2024-01-30T05:48:10;17.27;;;10.38;;
31262;SDS011;17892;52.080;9.006;2024-01-30T05:50:36;16.77;;;10.02;;
31262;SDS011;17892;52.080;9.006;2024-01-30T05:53:02;14.55;;;9.52;;
31262;SDS011;17892;52.080;9.006;2024-01-30T05:55:27;13.95;;;8.77;;
31262;SDS011;17892;52.080;9.006;2024-01-30T05:57:53;14.68;;;9.75;;
31262;SDS011;17892;52.080;9.006;2024-01-30T06:00:19;15.25;;;9.05;;
31262;SDS011;17892;52.080;9.006;2024-01-30T06:02:45;16.95;;;9.57;;
31262;SDS011;17892;52.080;9.006;2024-01-30T06:05:10;15.43;;;9.32;;
31262;SDS011;17892;52.080;9.006;2024-01-30T06:07:36;15.32;;;9.18;;
31262;SDS011;17892;52.080;9.006;2024-01-30T06:10:02;14.55;;;9.02;;
31262;SDS011;17892;52.080;9.006;2024-01-30T06:12:28;16.80;;;8.55;;
31262;SDS011;17892;52.080;9.006;2024-01-30T06:14:54;14.88;;;8.90;;
31262;SDS011;17892;52.080;9.006;2024-01-30T06:17:22;15.45;;;8.15;;
31262;SDS011;17892;52.080;9.006;2024-01-30T06:19:48;15.43;;;8.40;;
31262;SDS011;17892;52.080;9.006;2024-01-30T06:22:15;17.00;;;8.98;;
31262;SDS011;17892;52.080;9.006;2024-01-30T06:24:41;14.45;;;8.88;;
31262;SDS011;17892;52.080;9.006;2024-01-30T06:27:09;12.40;;;8.23;;
31262;SDS011;17892;52.080;9.006;2024-01-30T06:29:36;14.80;;;9.00;;
31262;SDS011;17892;52.080;9.006;2024-01-30T06:32:01;15.35;;;8.82;;
31262;SDS011;17892;52.080;9.006;2024-01-30T06:34:27;15.25;;;9.63;;
31262;SDS011;17892;52.080;9.006;2024-01-30T06:36:54;14.88;;;8.40;;
31262;SDS011;17892;52.080;9.006;2024-01-30T06:39:20;14.90;;;8.55;;
31262;SDS011;17892;52.080;9.006;2024-01-30T06:41:46;13.65;;;8.45;;
31262;SDS011;17892;52.080;9.006;2024-01-30T06:44:12;17.35;;;9.25;;
31262;SDS011;17892;52.080;9.006;2024-01-30T06:46:38;13.98;;;9.40;;
31262;SDS011;17892;52.080;9.006;2024-01-30T06:49:04;14.68;;;9.43;;
31262;SDS011;17892;52.080;9.006;2024-01-30T06:51:30;13.32;;;8.82;;
31262;SDS011;17892;52.080;9.006;2024-01-30T06:53:56;12.77;;;8.88;;
31262;SDS011;17892;52.080;9.006;2024-01-30T06:56:22;14.15;;;8.50;;
31262;SDS011;17892;52.080;9.006;2024-01-30T06:58:48;16.65;;;9.43;;
31262;SDS011;17892;52.080;9.006;2024-01-30T07:01:14;13.98;;;8.98;;
31262;SDS011;17892;52.080;9.006;2024-01-30T07:03:41;13.73;;;8.00;;
31262;SDS011;17892;52.080;9.006;2024-01-30T07:06:07;15.05;;;10.00;;
31262;SDS011;17892;52.080;9.006;2024-01-30T07:08:33;15.85;;;9.80;;
31262;SDS011;17892;52.080;9.006;2024-01-30T07:10:59;16.98;;;10.25;;
31262;SDS011;17892;52.080;9.006;2024-01-30T07:13:25;17.85;;;10.13;;
31262;SDS011;17892;52.080;9.006;2024-01-30T07:15:51;16.02;;;9.27;;
31262;SDS011;17892;52.080;9.006;2024-01-30T07:18:17;15.98;;;8.85;;
31262;SDS011;17892;52.080;9.006;2024-01-30T07:20:42;15.40;;;9.05;;
31262;SDS011;17892;52.080;9.006;2024-01-30T07:23:14;17.10;;;9.23;;
31262;SDS011;17892;52.080;9.006;2024-01-30T07:25:43;14.65;;;9.02;;
31262;SDS011;17892;52.080;9.006;2024-01-30T07:28:09;16.05;;;10.35;;
31262;SDS011;17892;52.080;9.006;2024-01-30T07:30:36;14.25;;;9.07;;
31262;SDS011;17892;52.080;9.006;2024-01-30T07:33:03;17.23;;;9.80;;
31262;SDS011;17892;52.080;9.006;2024-01-30T07:35:28;16.15;;;9.88;;
31262;SDS011;17892;52.080;9.006;2024-01-30T07:37:54;16.98;;;8.68;;
31262;SDS011;17892;52.080;9.006;2024-01-30T07:40:21;16.45;;;9.88;;
31262;SDS011;17892;52.080;9.006;2024-01-30T07:42:47;14.88;;;8.30;;
31262;SDS011;17892;52.080;9.006;2024-01-30T07:45:13;15.43;;;9.55;;
31262;SDS011;17892;52.080;9.006;2024-01-30T07:47:39;16.95;;;9.88;;
31262;SDS011;17892;52.080;9.006;2024-01-30T07:50:05;15.75;;;9.80;;
31262;SDS011;17892;52.080;9.006;2024-01-30T07:52:32;16.35;;;9.05;;
31262;SDS011;17892;52.080;9.006;2024-01-30T07:54:57;15.70;;;9.70;;
31262;SDS011;17892;52.080;9.006;2024-01-30T07:57:23;14.85;;;8.55;;
31262;SDS011;17892;52.080;9.006;2024-01-30T07:59:49;16.95;;;9.95;;
31262;SDS011;17892;52.080;9.006;2024-01-30T08:02:15;17.10;;;9.60;;
31262;SDS011;17892;52.080;9.006;2024-01-30T08:04:41;12.75;;;8.23;;
31262;SDS011;17892;52.080;9.006;2024-01-30T08:07:07;15.15;;;8.57;;
31262;SDS011;17892;52.080;9.006;2024-01-30T08:09:32;17.15;;;9.65;;
31262;SDS011;17892;52.080;9.006;2024-01-30T08:11:58;12.63;;;8.05;;
31262;SDS011;17892;52.080;9.006;2024-01-30T08:14:24;14.95;;;8.88;;
31262;SDS011;17892;52.080;9.006;2024-01-30T08:16:50;14.75;;;9.43;;
31262;SDS011;17892;52.080;9.006;2024-01-30T08:19:16;14.32;;;8.82;;
31262;SDS011;17892;52.080;9.006;2024-01-30T08:21:42;12.90;;;8.13;;
31262;SDS011;17892;52.080;9.006;2024-01-30T08:24:08;12.57;;;7.70;;
31262;SDS011;17892;52.080;9.006;2024-01-30T08:26:34;15.18;;;8.60;;
31262;SDS011;17892;52.080;9.006;2024-01-30T08:29:01;17.67;;;9.43;;
31262;SDS011;17892;52.080;9.006;2024-01-30T08:31:26;15.27;;;9.25;;
31262;SDS011;17892;52.080;9.006;2024-01-30T08:33:52;15.73;;;9.25;;
31262;SDS011;17892;52.080;9.006;2024-01-30T08:36:18;14.60;;;8.38;;
31262;SDS011;17892;52.080;9.006;2024-01-30T08:38:44;15.30;;;9.05;;
31262;SDS011;17892;52.080;9.006;2024-01-30T08:41:10;16.45;;;9.50;;
31262;SDS011;17892;52.080;9.006;2024-01-30T08:43:36;15.57;;;9.10;;
31262;SDS011;17892;52.080;9.006;2024-01-30T08:46:02;12.18;;;8.35;;
31262;SDS011;17892;52.080;9.006;2024-01-30T08:48:28;13.68;;;8.60;;
31262;SDS011;17892;52.080;9.006;2024-01-30T08:50:54;16.67;;;9.18;;
31262;SDS011;17892;52.080;9.006;2024-01-30T08:53:20;12.55;;;8.63;;
31262;SDS011;17892;52.080;9.006;2024-01-30T08:55:45;14.15;;;8.07;;
31262;SDS011;17892;52.080;9.006;2024-01-30T08:58:11;13.55;;;8.65;;
31262;SDS011;17892;52.080;9.006;2024-01-30T09:00:37;14.10;;;8.73;;
31262;SDS011;17892;52.080;9.006;2024-01-30T09:03:03;13.40;;;7.47;;
31262;SDS011;17892;52.080;9.006;2024-01-30T09:05:29;13.95;;;9.00;;
31262;SDS011;17892;52.080;9.006;2024-01-30T09:07:55;13.02;;;8.40;;
31262;SDS011;17892;52.080;9.006;2024-01-30T09:10:21;13.90;;;8.18;;
31262;SDS011;17892;52.080;9.006;2024-01-30T09:12:47;12.57;;;8.98;;
31262;SDS011;17892;52.080;9.006;2024-01-30T09:15:14;11.98;;;7.63;;
31262;SDS011;17892;52.080;9.006;2024-01-30T09:17:40;9.30;;;5.65;;
31262;SDS011;17892;52.080;9.006;2024-01-30T09:20:06;7.97;;;4.90;;
31262;SDS011;17892;52.080;9.006;2024-01-30T09:22:32;9.50;;;5.93;;
31262;SDS011;17892;52.080;9.006;2024-01-30T09:24:58;9.18;;;6.00;;
31262;SDS011;17892;52.080;9.006;2024-01-30T09:27:23;10.55;;;6.47;;
31262;SDS011;17892;52.080;9.006;2024-01-30T09:29:49;10.23;;;6.75;;
31262;SDS011;17892;52.080;9.006;2024-01-30T09:32:15;11.43;;;6.75;;
31262;SDS011;17892;52.080;9.006;2024-01-30T09:34:42;12.50;;;7.50;;
31262;SDS011;17892;52.080;9.006;2024-01-30T09:37:08;11.68;;;7.68;;
31262;SDS011;17892;52.080;9.006;2024-01-30T09:39:34;11.20;;;7.13;;
31262;SDS011;17892;52.080;9.006;2024-01-30T09:42:33;10.43;;;7.13;;
31262;SDS011;17892;52.080;9.006;2024-01-30T09:44:54;11.75;;;7.65;;
31262;SDS011;17892;52.080;9.006;2024-01-30T09:47:20;13.63;;;8.13;;
31262;SDS011;17892;52.080;9.006;2024-01-30T09:49:46;13.90;;;7.47;;
31262;SDS011;17892;52.080;9.006;2024-01-30T09:52:12;11.57;;;7.80;;
31262;SDS011;17892;52.080;9.006;2024-01-30T09:54:38;13.43;;;8.13;;
31262;SDS011;17892;52.080;9.006;2024-01-30T09:57:06;11.93;;;7.60;;
31262;SDS011;17892;52.080;9.006;2024-01-30T09:59:32;11.75;;;7.82;;
31262;SDS011;17892;52.080;9.006;2024-01-30T10:01:58;11.63;;;8.05;;
31262;SDS011;17892;52.080;9.006;2024-01-30T10:04:25;12.32;;;7.80;;
31262;SDS011;17892;52.080;9.006;2024-01-30T10:06:51;11.93;;;7.75;;
31262;SDS011;17892;52.080;9.006;2024-01-30T10:09:16;11.55;;;8.02;;
31262;SDS011;17892;52.080;9.006;2024-01-30T10:11:42;10.95;;;8.23;;
31262;SDS011;17892;52.080;9.006;2024-01-30T10:14:08;14.00;;;8.00;;
31262;SDS011;17892;52.080;9.006;2024-01-30T10:16:34;13.88;;;8.73;;
31262;SDS011;17892;52.080;9.006;2024-01-30T10:19:00;13.95;;;8.07;;
31262;SDS011;17892;52.080;9.006;2024-01-30T10:21:27;12.60;;;8.15;;
31262;SDS011;17892;52.080;9.006;2024-01-30T10:23:55;12.27;;;7.95;;
31262;SDS011;17892;52.080;9.006;2024-01-30T10:26:21;14.10;;;8.57;;
31262;SDS011;17892;52.080;9.006;2024-01-30T10:28:47;13.00;;;7.75;;
31262;SDS011;17892;52.080;9.006;2024-01-30T10:31:17;12.57;;;8.20;;
31262;SDS011;17892;52.080;9.006;2024-01-30T10:33:44;11.93;;;8.95;;
31262;SDS011;17892;52.080;9.006;2024-01-30T10:36:10;13.15;;;8.15;;
31262;SDS011;17892;52.080;9.006;2024-01-30T10:38:42;12.00;;;7.88;;
31262;SDS011;17892;52.080;9.006;2024-01-30T10:43:42;13.48;;;9.15;;
31262;SDS011;17892;52.080;9.006;2024-01-30T10:46:37;12.60;;;7.63;;
31262;SDS011;17892;52.080;9.006;2024-01-30T10:49:04;12.15;;;8.05;;
31262;SDS011;17892;52.080;9.006;2024-01-30T10:51:31;13.15;;;8.38;;
31262;SDS011;17892;52.080;9.006;2024-01-30T10:53:57;14.30;;;8.30;;
31262;SDS011;17892;52.080;9.006;2024-01-30T10:56:24;13.80;;;8.25;;
31262;SDS011;17892;52.080;9.006;2024-01-30T10:58:53;15.15;;;8.65;;
31262;SDS011;17892;52.080;9.006;2024-01-30T11:01:20;15.45;;;9.05;;
31262;SDS011;17892;52.080;9.006;2024-01-30T11:03:51;12.57;;;8.65;;
31262;SDS011;17892;52.080;9.006;2024-01-30T11:06:17;11.18;;;7.97;;
31262;SDS011;17892;52.080;9.006;2024-01-30T11:08:44;12.65;;;7.90;;
31262;SDS011;17892;52.080;9.006;2024-01-30T11:11:10;15.82;;;8.45;;
31262;SDS011;17892;52.080;9.006;2024-01-30T11:13:36;13.25;;;7.72;;
31262;SDS011;17892;52.080;9.006;2024-01-30T11:16:05;11.88;;;7.22;;
31262;SDS011;17892;52.080;9.006;2024-01-30T11:18:32;11.52;;;8.18;;
31262;SDS011;17892;52.080;9.006;2024-01-30T11:21:00;11.55;;;8.00;;
31262;SDS011;17892;52.080;9.006;2024-01-30T11:23:27;11.45;;;8.23;;
31262;SDS011;17892;52.080;9.006;2024-01-30T11:25:54;11.93;;;7.22;;
31262;SDS011;17892;52.080;9.006;2024-01-30T11:28:21;12.38;;;7.85;;
31262;SDS011;17892;52.080;9.006;2024-01-30T11:30:48;11.52;;;7.82;;
31262;SDS011;17892;52.080;9.006;2024-01-30T11:33:15;11.15;;;7.80;;
31262;SDS011;17892;52.080;9.006;2024-01-30T11:35:56;12.07;;;8.45;;
31262;SDS011;17892;52.080;9.006;2024-01-30T11:38:27;12.20;;;7.80;;
31262;SDS011;17892;52.080;9.006;2024-01-30T11:40:56;12.02;;;7.35;;
31262;SDS011;17892;52.080;9.006;2024-01-30T11:43:22;13.52;;;8.15;;
31262;SDS011;17892;52.080;9.006;2024-01-30T11:45:48;12.00;;;7.93;;
31262;SDS011;17892;52.080;9.006;2024-01-30T11:48:15;10.63;;;7.40;;
31262;SDS011;17892;52.080;9.006;2024-01-30T11:50:41;10.90;;;7.70;;
31262;SDS011;17892;52.080;9.006;2024-01-30T11:53:07;10.77;;;7.88;;
31262;SDS011;17892;52.080;9.006;2024-01-30T11:55:33;11.75;;;7.65;;
31262;SDS011;17892;52.080;9.006;2024-01-30T11:58:01;9.68;;;6.47;;
31262;SDS011;17892;52.080;9.006;2024-01-30T12:00:29;10.25;;;7.45;;
31262;SDS011;17892;52.080;9.006;2024-01-30T12:02:56;10.50;;;7.43;;
31262;SDS011;17892;52.080;9.006;2024-01-30T12:05:22;11.82;;;7.40;;
31262;SDS011;17892;52.080;9.006;2024-01-30T12:07:49;10.80;;;7.28;;
31262;SDS011;17892;52.080;9.006;2024-01-30T12:10:15;11.98;;;7.03;;
31262;SDS011;17892;52.080;9.006;2024-01-30T12:12:47;13.15;;;7.63;;
31262;SDS011;17892;52.080;9.006;2024-01-30T12:15:15;10.98;;;7.32;;
31262;SDS011;17892;52.080;9.006;2024-01-30T12:17:42;10.77;;;7.60;;
31262;SDS011;17892;52.080;9.006;2024-01-30T12:20:08;10.60;;;7.47;;
31262;SDS011;17892;52.080;9.006;2024-01-30T12:22:40;9.35;;;6.00;;
31262;SDS011;17892;52.080;9.006;2024-01-30T12:25:16;7.20;;;4.95;;
31262;SDS011;17892;52.080;9.006;2024-01-30T12:27:48;7.78;;;5.13;;
31262;SDS011;17892;52.080;9.006;2024-01-30T12:30:16;9.75;;;6.35;;
31262;SDS011;17892;52.080;9.006;2024-01-30T12:32:44;7.35;;;5.10;;
31262;SDS011;17892;52.080;9.006;2024-01-30T12:35:15;9.18;;;5.68;;
31262;SDS011;17892;52.080;9.006;2024-01-30T12:37:43;9.75;;;5.05;;
31262;SDS011;17892;52.080;9.006;2024-01-30T12:40:11;6.60;;;4.95;;
31262;SDS011;17892;52.080;9.006;2024-01-30T12:42:39;9.60;;;5.72;;
31262;SDS011;17892;52.080;9.006;2024-01-30T12:45:16;7.55;;;5.22;;
31262;SDS011;17892;52.080;9.006;2024-01-30T12:47:46;7.10;;;4.90;;
31262;SDS011;17892;52.080;9.006;2024-01-30T12:50:12;9.30;;;5.03;;
31262;SDS011;17892;52.080;9.006;2024-01-30T12:52:40;6.65;;;4.55;;
31262;SDS011;17892;52.080;9.006;2024-01-30T12:55:08;6.25;;;3.50;;
31262;SDS011;17892;52.080;9.006;2024-01-30T12:57:33;5.85;;;3.78;;
31262;SDS011;17892;52.080;9.006;2024-01-30T12:59:59;7.10;;;3.67;;
31262;SDS011;17892;52.080;9.006;2024-01-30T13:02:25;10.65;;;3.88;;
31262;SDS011;17892;52.080;9.006;2024-01-30T13:04:55;6.65;;;3.75;;
31262;SDS011;17892;52.080;9.006;2024-01-30T13:07:21;5.45;;;3.28;;
31262;SDS011;17892;52.080;9.006;2024-01-30T13:09:46;6.65;;;4.75;;
31262;SDS011;17892;52.080;9.006;2024-01-30T13:12:12;7.18;;;3.53;;
31262;SDS011;17892;52.080;9.006;2024-01-30T13:14:38;5.57;;;3.60;;
31262;SDS011;17892;52.080;9.006;2024-01-30T13:17:04;5.75;;;2.85;;
31262;SDS011;17892;52.080;9.006;2024-01-30T13:19:29;5.57;;;2.78;;
31262;SDS011;17892;52.080;9.006;2024-01-30T13:21:55;5.35;;;3.08;;
31262;SDS011;17892;52.080;9.006;2024-01-30T13:24:21;7.20;;;3.85;;
31262;SDS011;17892;52.080;9.006;2024-01-30T13:26:47;7.13;;;3.67;;
31262;SDS011;17892;52.080;9.006;2024-01-30T13:29:13;7.80;;;3.70;;
31262;SDS011;17892;52.080;9.006;2024-01-30T13:31:39;5.43;;;3.08;;
31262;SDS011;17892;52.080;9.006;2024-01-30T13:34:06;8.10;;;3.50;;
31262;SDS011;17892;52.080;9.006;2024-01-30T13:36:34;6.53;;;3.50;;
31262;SDS011;17892;52.080;9.006;2024-01-30T13:39:00;6.50;;;3.05;;
31262;SDS011;17892;52.080;9.006;2024-01-30T13:41:26;5.63;;;3.05;;
31262;SDS011;17892;52.080;9.006;2024-01-30T13:43:51;7.10;;;4.15;;
31262;SDS011;17892;52.080;9.006;2024-01-30T13:46:17;6.65;;;3.33;;
31262;SDS011;17892;52.080;9.006;2024-01-30T13:48:43;6.13;;;3.55;;
31262;SDS011;17892;52.080;9.006;2024-01-30T13:51:09;7.65;;;3.92;;
31262;SDS011;17892;52.080;9.006;2024-01-30T13:53:35;6.75;;;3.08;;
31262;SDS011;17892;52.080;9.006;2024-01-30T13:56:01;7.63;;;3.28;;
31262;SDS011;17892;52.080;9.006;2024-01-30T13:58:27;7.75;;;3.88;;
31262;SDS011;17892;52.080;9.006;2024-01-30T14:00:53;7.90;;;4.13;;
31262;SDS011;17892;52.080;9.006;2024-01-30T14:03:18;7.07;;;4.32;;
31262;SDS011;17892;52.080;9.006;2024-01-30T14:05:45;6.70;;;3.65;;
31262;SDS011;17892;52.080;9.006;2024-01-30T14:08:10;7.28;;;3.67;;
31262;SDS011;17892;52.080;9.006;2024-01-30T14:10:36;5.43;;;3.20;;
31262;SDS011;17892;52.080;9.006;2024-01-30T14:13:02;5.63;;;2.90;;
31262;SDS011;17892;52.080;9.006;2024-01-30T14:15:28;6.97;;;3.30;;
31262;SDS011;17892;52.080;9.006;2024-01-30T14:17:54;6.00;;;3.22;;
31262;SDS011;17892;52.080;9.006;2024-01-30T14:20:20;7.13;;;3.83;;
31262;SDS011;17892;52.080;9.006;2024-01-30T14:22:46;5.43;;;3.05;;
31262;SDS011;17892;52.080;9.006;2024-01-30T14:25:12;6.43;;;3.05;;
31262;SDS011;17892;52.080;9.006;2024-01-30T14:27:38;5.68;;;3.50;;
31262;SDS011;17892;52.080;9.006;2024-01-30T14:30:03;5.82;;;3.78;;
31262;SDS011;17892;52.080;9.006;2024-01-30T14:32:30;6.60;;;3.75;;
31262;SDS011;17892;52.080;9.006;2024-01-30T14:34:56;6.18;;;3.60;;
31262;SDS011;17892;52.080;9.006;2024-01-30T14:37:21;11.80;;;3.83;;
31262;SDS011;17892;52.080;9.006;2024-01-30T14:39:48;6.57;;;4.03;;